Aviation Digital Data Service (ADDS)

Output produced by TAFs form (0802 UTC 20 October 2014)
found at http://aviationweather.gov/adds/tafs/
 
KGJT 200520Z 2006/2106 10008KT P6SM SCT150 
     FM202000 28008KT P6SM SCT100 
     FM210000 35006KT P6SM BKN250